createdAt,value
2017-02-27T00:00:29.265Z,96.78
2017-02-27T00:01:29.254Z,96.21
2017-02-27T00:02:29.236Z,96.49
2017-02-27T00:03:29.221Z,96.78
2017-02-27T00:04:29.196Z,96.4
2017-02-27T00:05:29.201Z,96.4
2017-02-27T00:06:29.177Z,96.4
2017-02-27T00:07:29.159Z,96.49
2017-02-27T00:08:29.134Z,96.78
2017-02-27T00:09:29.125Z,96.59
2017-02-27T00:10:29.105Z,96.59
2017-02-27T00:11:29.097Z,96.68
2017-02-27T00:12:29.074Z,96.45
2017-02-27T00:13:29.060Z,96.78
2017-02-27T00:14:29.027Z,96.78
2017-02-27T00:15:29.023Z,96.49
2017-02-27T00:16:29.008Z,96.21
2017-02-27T00:17:28.993Z,97.25
2017-02-27T00:18:28.977Z,96.49
2017-02-27T00:19:28.956Z,96.49
2017-02-27T00:20:28.933Z,96.4
2017-02-27T00:21:28.533Z,96.87
2017-02-27T00:22:28.909Z,96.78
2017-02-27T00:23:28.893Z,96.68
2017-02-27T00:24:28.888Z,96.68
2017-02-27T00:25:28.863Z,96.78
2017-02-27T00:26:28.829Z,96.68
2017-02-27T00:27:28.825Z,96.68
2017-02-27T00:28:28.815Z,96.87
2017-02-27T00:29:28.810Z,96.87
2017-02-27T00:30:28.779Z,96.68
2017-02-27T00:31:28.766Z,96.59
2017-02-27T00:32:28.741Z,96.87
2017-02-27T00:33:28.732Z,97.06
2017-02-27T00:34:28.713Z,97.15
2017-02-27T00:35:28.705Z,97.25
2017-02-27T00:36:28.673Z,97.25
2017-02-27T00:37:28.276Z,97.34
2017-02-27T00:38:28.645Z,97.06
2017-02-27T00:39:28.629Z,97.15
2017-02-27T00:40:28.610Z,97.06
2017-02-27T00:41:28.600Z,97.06
2017-02-27T00:42:28.594Z,96.87
2017-02-27T00:43:28.562Z,96.96
2017-02-27T00:44:28.555Z,97.06
2017-02-27T00:45:28.525Z,97.06
2017-02-27T00:46:28.508Z,97.06
2017-02-27T00:47:28.490Z,97.06
2017-02-27T00:48:28.484Z,97.15
2017-02-27T00:49:28.507Z,97.15
2017-02-27T00:50:28.437Z,97.25
2017-02-27T00:51:28.434Z,97.06
2017-02-27T00:52:28.428Z,97.06
2017-02-27T00:53:28.404Z,97.06
2017-02-27T00:54:28.389Z,96.78
2017-02-27T00:55:28.377Z,96.68
2017-02-27T00:56:28.339Z,96.78
2017-02-27T00:57:28.322Z,97.25
2017-02-27T00:58:28.305Z,97.25
2017-02-27T00:59:28.291Z,96.78
2017-02-27T01:00:28.280Z,96.78
2017-02-27T01:01:28.259Z,97.06
2017-02-27T01:02:27.856Z,97.15
2017-02-27T01:03:28.251Z,97.53
2017-02-27T01:04:28.219Z,97.25
2017-02-27T01:05:28.190Z,97.25
2017-02-27T01:06:28.172Z,97.15
2017-02-27T01:07:28.154Z,97.06
2017-02-27T01:08:28.156Z,97.63
2017-02-27T01:09:28.127Z,96.87
2017-02-27T01:10:28.114Z,96.78
2017-02-27T01:11:28.106Z,97.15
2017-02-27T01:12:28.084Z,97.63
2017-02-27T01:13:28.058Z,97.63
2017-02-27T01:14:28.057Z,97.44
2017-02-27T01:15:28.039Z,97.44
2017-02-27T01:16:28.009Z,97.63
2017-02-27T01:17:28.009Z,97.63
2017-02-27T01:18:27.983Z,96.87
2017-02-27T01:19:27.587Z,97.06
2017-02-27T01:20:27.947Z,97.15
2017-02-27T01:21:27.929Z,97.06
2017-02-27T01:22:27.914Z,96.87
2017-02-27T01:23:27.899Z,97.06
2017-02-27T01:24:27.914Z,96.78
2017-02-27T01:25:27.870Z,97.25
2017-02-27T01:26:27.857Z,96.87
2017-02-27T01:27:27.846Z,97.25
2017-02-27T01:28:27.816Z,97.06
2017-02-27T01:29:27.815Z,96.87
2017-02-27T01:30:27.795Z,97.06
2017-02-27T01:31:27.768Z,96.87
2017-02-27T01:32:27.766Z,97.2
2017-02-27T01:33:27.813Z,96.96
2017-02-27T01:34:27.734Z,97.15
2017-02-27T01:52:11.849Z,97.06
2017-02-27T01:52:51.611Z,97.58
2017-02-27T01:53:51.584Z,97.49
2017-02-27T01:54:51.560Z,97.34
2017-02-27T01:55:51.544Z,97.58
2017-02-27T01:56:51.536Z,97.67
2017-02-27T01:57:51.523Z,97.49
2017-02-27T01:58:51.505Z,97.49
2017-02-27T01:59:51.491Z,97.49
2017-02-27T02:00:51.485Z,97.44
2017-02-27T02:01:51.466Z,97.39
2017-02-27T02:02:51.457Z,97.49
2017-02-27T02:03:51.422Z,97.49
2017-02-27T02:04:51.418Z,97.58
2017-02-27T02:05:51.406Z,97.77
2017-02-27T02:06:51.368Z,97.2
2017-02-27T02:07:51.370Z,97.2
2017-02-27T02:08:51.344Z,97.11
2017-02-27T02:09:51.342Z,97.2
2017-02-27T02:10:51.326Z,96.83
2017-02-27T02:11:50.921Z,97.01
2017-02-27T02:12:51.280Z,97.2
2017-02-27T02:13:51.271Z,97.11
2017-02-27T02:14:51.245Z,97.67
2017-02-27T02:15:51.235Z,97.3
2017-02-27T02:16:50.833Z,97.39
2017-02-27T02:17:51.215Z,97.58
2017-02-27T02:18:51.189Z,97.39
2017-02-27T02:19:50.791Z,97.49
2017-02-27T02:20:50.777Z,97.58
2017-02-27T02:21:51.150Z,97.49
2017-02-27T02:22:50.737Z,97.49
2017-02-27T02:23:50.733Z,97.39
2017-02-27T02:24:50.709Z,97.39
2017-02-27T02:25:51.080Z,97.49
2017-02-27T02:26:51.077Z,97.49
2017-02-27T02:27:51.062Z,97.49
2017-02-27T02:28:51.035Z,97.39
2017-02-27T02:29:51.018Z,97.39
2017-02-27T02:30:51.006Z,97.49
2017-02-27T02:31:51.015Z,97.58
2017-02-27T02:32:50.980Z,97.49
2017-02-27T02:33:50.970Z,96.92
2017-02-27T02:34:50.969Z,97.58
2017-02-27T02:35:50.936Z,97.11
2017-02-27T02:36:50.925Z,96.92
2017-02-27T02:37:50.892Z,97.58
2017-02-27T02:38:50.892Z,97.58
2017-02-27T02:39:50.863Z,97.49
2017-02-27T02:40:50.860Z,97.49
2017-02-27T02:41:50.844Z,97.67
2017-02-27T02:42:50.837Z,97.49
2017-02-27T02:43:50.811Z,97.58
2017-02-27T02:44:50.814Z,97.39
2017-02-27T02:45:50.777Z,97.3
2017-02-27T02:46:50.774Z,97.58
2017-02-27T02:47:50.749Z,97.49
2017-02-27T02:48:50.741Z,97.3
2017-02-27T02:49:50.716Z,97.39
2017-02-27T02:50:50.715Z,97.39
2017-02-27T02:51:50.708Z,97.67
2017-02-27T02:52:50.695Z,97.3
2017-02-27T02:53:50.674Z,97.49
2017-02-27T02:54:50.262Z,97.39
2017-02-27T02:55:50.245Z,97.58
2017-02-27T02:56:50.631Z,97.3
2017-02-27T02:57:50.597Z,97.49
2017-02-27T02:58:50.591Z,97.58
2017-02-27T02:59:50.583Z,97.49
2017-02-27T03:00:50.577Z,97.49
2017-02-27T03:01:50.164Z,97.58
2017-02-27T03:02:50.141Z,97.39
2017-02-27T03:03:50.524Z,97.67
2017-02-27T03:04:50.501Z,97.58
2017-02-27T03:05:50.493Z,97.49
2017-02-27T03:06:50.475Z,97.39
2017-02-27T03:07:50.460Z,97.49
2017-02-27T03:08:50.462Z,97.67
2017-02-27T03:09:50.435Z,97.96
2017-02-27T03:10:50.406Z,97.96
2017-02-27T03:11:50.401Z,97.86
2017-02-27T03:12:50.385Z,97.58
2017-02-27T03:13:50.372Z,97.58
2017-02-27T03:14:50.365Z,97.86
2017-02-27T03:15:50.328Z,97.86
2017-02-27T03:16:50.318Z,97.86
2017-02-27T03:17:50.319Z,97.67
2017-02-27T03:18:50.287Z,97.49
2017-02-27T03:19:50.284Z,97.86
2017-02-27T03:20:50.261Z,97.96
2017-02-27T03:21:50.252Z,97.91
2017-02-27T03:22:50.233Z,98.19
2017-02-27T03:23:50.240Z,98.1
2017-02-27T03:24:50.199Z,98.19
2017-02-27T03:25:50.185Z,97.91
2017-02-27T03:26:50.172Z,98.1
2017-02-27T03:27:50.141Z,98.1
2017-02-27T03:28:50.133Z,98
2017-02-27T03:29:50.114Z,98
2017-02-27T03:30:50.127Z,97.81
2017-02-27T03:31:50.099Z,97.81
2017-02-27T03:32:50.069Z,98.1
2017-02-27T03:33:50.060Z,98.1
2017-02-27T03:34:50.048Z,98
2017-02-27T03:35:50.041Z,98.19
2017-02-27T03:36:50.016Z,97.91
2017-02-27T03:37:50.003Z,98
2017-02-27T03:38:49.976Z,98
2017-02-27T03:39:49.980Z,98.1
2017-02-27T03:40:49.938Z,98.1
2017-02-27T03:41:49.930Z,97.81
2017-02-27T03:42:49.926Z,97.81
2017-02-27T03:43:49.887Z,97.72
2017-02-27T03:44:49.886Z,97.81
2017-02-27T03:45:49.855Z,98
2017-02-27T03:46:49.848Z,97.63
2017-02-27T03:47:49.838Z,97.34
2017-02-27T03:48:49.844Z,97.63
2017-02-27T03:49:49.413Z,97.25
2017-02-27T03:50:49.774Z,97.53
2017-02-27T03:51:49.768Z,97.06
2017-02-27T03:52:49.356Z,97.44
2017-02-27T03:53:49.351Z,97.44
2017-02-27T03:54:49.325Z,97.34
2017-02-27T03:55:49.316Z,97.15
2017-02-27T03:56:49.686Z,97.53
2017-02-27T03:57:49.674Z,97.34
2017-02-27T03:58:49.641Z,97.44
2017-02-27T03:59:49.644Z,97.06
2017-02-27T04:00:49.638Z,96.87
2017-02-27T04:01:49.591Z,96.78
2017-02-27T04:02:49.584Z,97.25
2017-02-27T04:03:49.560Z,96.92
2017-02-27T04:04:49.557Z,96.83
2017-02-27T04:05:49.540Z,96.83
2017-02-27T04:06:49.517Z,96.92
2017-02-27T04:07:49.505Z,97.11
2017-02-27T04:08:49.493Z,96.92
2017-02-27T04:09:49.474Z,96.92
2017-02-27T04:10:49.454Z,97.01
2017-02-27T04:11:49.440Z,97.11
2017-02-27T04:12:49.423Z,96.73
2017-02-27T04:13:49.412Z,96.92
2017-02-27T04:14:49.385Z,96.92
2017-02-27T04:15:49.376Z,96.73
2017-02-27T04:16:49.350Z,97.11
2017-02-27T04:17:49.341Z,97.11
2017-02-27T04:18:49.328Z,96.92
2017-02-27T04:19:49.296Z,97.2
2017-02-27T04:20:49.284Z,96.83
2017-02-27T04:21:49.272Z,96.73
2017-02-27T04:22:49.252Z,97.2
2017-02-27T04:23:49.245Z,97.2
2017-02-27T04:24:49.231Z,97.2
2017-02-27T04:25:49.213Z,97.3
2017-02-27T04:26:49.186Z,97.11
2017-02-27T04:27:49.190Z,96.92
2017-02-27T04:28:49.157Z,97.2
2017-02-27T04:29:49.148Z,97.11
2017-02-27T04:30:49.136Z,97.01
2017-02-27T04:31:49.106Z,97.01
2017-02-27T04:32:49.099Z,97.11
2017-02-27T04:33:48.694Z,96.92
2017-02-27T04:34:48.681Z,96.92
2017-02-27T04:35:49.037Z,97.11
2017-02-27T04:36:48.641Z,97.11
2017-02-27T04:37:48.638Z,97.2
2017-02-27T04:38:48.614Z,97.11
2017-02-27T04:39:48.988Z,97.67
2017-02-27T04:40:48.969Z,97.44
2017-02-27T04:41:48.951Z,97.44
2017-02-27T04:42:48.937Z,97.2
2017-02-27T04:43:48.929Z,97.15
2017-02-27T04:44:48.894Z,97.49
2017-02-27T04:45:48.873Z,97.15
2017-02-27T04:46:48.863Z,97.25
2017-02-27T04:47:48.861Z,96.92
2017-02-27T04:48:48.852Z,96.83
2017-02-27T04:49:48.812Z,97.11
2017-02-27T04:50:48.806Z,97.11
2017-02-27T04:51:48.781Z,97.11
2017-02-27T04:52:48.777Z,97.11
2017-02-27T04:53:48.747Z,97.11
2017-02-27T04:54:48.739Z,97.11
2017-02-27T04:55:48.711Z,97.11
2017-02-27T04:56:48.697Z,97.2
2017-02-27T04:57:48.699Z,97.3
2017-02-27T04:58:48.679Z,97.3
2017-02-27T04:59:48.279Z,97.11
2017-02-27T05:00:48.648Z,97.3
2017-02-27T05:01:48.625Z,97.11
2017-02-27T05:02:48.618Z,97.11
2017-02-27T05:03:48.591Z,97.11
2017-02-27T05:04:48.573Z,96.92
2017-02-27T05:05:48.556Z,97.01
2017-02-27T05:06:48.536Z,97.11
2017-02-27T05:07:48.534Z,97.3
2017-02-27T05:08:48.523Z,97.2
2017-02-27T05:09:48.511Z,97.11
2017-02-27T05:10:48.477Z,97.2
2017-02-27T05:11:48.485Z,97.2
2017-02-27T05:12:48.451Z,97.2
2017-02-27T05:13:48.052Z,97.11
2017-02-27T05:14:48.433Z,96.92
2017-02-27T05:15:48.422Z,97.3
2017-02-27T05:16:48.009Z,96.92
2017-02-27T05:17:47.993Z,97.01
2017-02-27T05:18:48.359Z,97.11
2017-02-27T05:19:48.355Z,97.06
2017-02-27T05:20:47.936Z,96.92
2017-02-27T05:21:48.305Z,97.2
2017-02-27T05:22:47.910Z,97.3
2017-02-27T05:23:47.892Z,96.73
2017-02-27T05:24:48.266Z,96.73
2017-02-27T05:25:48.258Z,97.2
2017-02-27T05:26:48.237Z,96.92
2017-02-27T05:27:48.209Z,96.73
2017-02-27T05:28:48.205Z,97.11
2017-02-27T05:29:48.178Z,97.11
2017-02-27T05:30:48.171Z,97.11
2017-02-27T05:31:48.163Z,97.01
2017-02-27T05:32:48.147Z,97.3
2017-02-27T05:33:48.114Z,97.11
2017-02-27T05:34:48.103Z,96.92
2017-02-27T05:35:48.081Z,96.92
2017-02-27T05:36:48.081Z,97.3
2017-02-27T05:37:48.058Z,96.92
2017-02-27T05:38:48.048Z,97.11
2017-02-27T05:39:48.032Z,97.01
2017-02-27T05:40:48.032Z,97.11
2017-02-27T05:41:48.002Z,96.83
2017-02-27T05:42:47.974Z,96.92
2017-02-27T05:43:47.975Z,97.39
2017-02-27T05:44:47.955Z,97.11
2017-02-27T05:45:47.927Z,97.67
2017-02-27T05:46:47.915Z,97.2
2017-02-27T05:47:47.902Z,97.49
2017-02-27T05:48:47.897Z,97.49
2017-02-27T05:49:47.887Z,97.49
2017-02-27T05:50:47.860Z,97.39
2017-02-27T05:51:47.847Z,97.49
2017-02-27T05:52:47.830Z,97.49
2017-02-27T05:53:47.807Z,97.58
2017-02-27T05:54:47.792Z,97.49
2017-02-27T05:55:47.796Z,97.58
2017-02-27T05:56:47.764Z,97.49
2017-02-27T05:57:47.772Z,97.39
2017-02-27T05:58:47.743Z,97.49
2017-02-27T05:59:47.732Z,97.2
2017-02-27T06:00:47.722Z,97.86
2017-02-27T06:01:47.697Z,97.86
2017-02-27T06:02:47.678Z,97.49
2017-02-27T06:03:47.693Z,97.67
2017-02-27T06:04:47.660Z,97.67
2017-02-27T06:05:47.630Z,97.63
2017-02-27T06:06:47.252Z,97.44
2017-02-27T06:07:47.600Z,97.81
2017-02-27T06:08:47.586Z,97.67
2017-02-27T06:09:47.577Z,97.86
2017-02-27T06:10:47.567Z,97.58
2017-02-27T06:11:47.555Z,97.39
2017-02-27T06:12:47.541Z,97.58
2017-02-27T06:13:47.513Z,97.3
2017-02-27T06:14:47.511Z,97.49
2017-02-27T06:15:47.491Z,97.39
2017-02-27T06:16:47.468Z,97.58
2017-02-27T06:17:47.451Z,97.49
2017-02-27T06:18:47.452Z,97.58
2017-02-27T06:19:47.424Z,97.58
2017-02-27T06:20:47.435Z,97.39
2017-02-27T06:21:47.421Z,97.11
2017-02-27T06:22:47.399Z,97.49
2017-02-27T06:23:47.383Z,97.3
2017-02-27T06:24:47.370Z,97.58
2017-02-27T06:25:47.360Z,97.67
2017-02-27T06:26:47.334Z,97.49
2017-02-27T06:27:47.324Z,97.67
2017-02-27T06:28:47.312Z,97.49
2017-02-27T06:29:47.293Z,97.58
2017-02-27T06:30:47.284Z,97.77
2017-02-27T06:31:47.267Z,97.39
2017-02-27T06:32:47.267Z,97.58
2017-02-27T06:33:47.225Z,97.77
2017-02-27T06:34:47.218Z,97.67
2017-02-27T06:35:47.237Z,97.67
2017-02-27T06:36:47.193Z,97.67
2017-02-27T06:37:47.163Z,97.3
2017-02-27T06:38:47.147Z,97.11
2017-02-27T06:39:47.141Z,97.3
2017-02-27T06:40:47.135Z,97.2
2017-02-27T06:41:47.119Z,97.58
2017-02-27T06:42:47.106Z,97.11
2017-02-27T06:43:47.074Z,97.58
2017-02-27T06:44:47.059Z,97.25
2017-02-27T06:45:47.056Z,96.78
2017-02-27T06:46:47.039Z,96.59
2017-02-27T06:47:47.034Z,96.78
2017-02-27T06:48:47.004Z,96.78
2017-02-27T06:49:46.989Z,97.16
2017-02-27T06:50:46.975Z,97.16
2017-02-27T06:51:46.974Z,96.88
2017-02-27T06:52:46.949Z,96.78
2017-02-27T06:53:46.960Z,97.16
2017-02-27T06:54:46.928Z,96.97
2017-02-27T06:55:46.925Z,97.06
2017-02-27T06:56:46.891Z,97.16
2017-02-27T06:57:46.881Z,96.88
2017-02-27T06:58:46.888Z,96.88
2017-02-27T06:59:46.852Z,96.97
2017-02-27T07:00:46.849Z,96.88
2017-02-27T07:01:46.446Z,96.97
2017-02-27T07:02:46.811Z,97.34
2017-02-27T07:03:46.807Z,96.88
2017-02-27T07:04:46.789Z,96.97
2017-02-27T07:05:46.776Z,96.78
2017-02-27T07:06:46.765Z,96.78
2017-02-27T07:07:46.746Z,97.16
2017-02-27T07:08:46.736Z,96.78
2017-02-27T07:09:46.718Z,97.44
2017-02-27T07:10:46.709Z,96.97
2017-02-27T07:11:46.689Z,97.63
2017-02-27T07:12:46.667Z,97.53
2017-02-27T07:13:46.656Z,97.72
2017-02-27T07:14:46.661Z,97.82
2017-02-27T07:15:46.623Z,98.2
2017-02-27T07:16:46.619Z,97.82
2017-02-27T07:17:46.595Z,98.33
2017-02-27T07:18:46.592Z,98.14
2017-02-27T07:19:46.565Z,98.43
2017-02-27T07:20:46.549Z,98.33
2017-02-27T07:21:46.533Z,98.05
2017-02-27T07:22:46.534Z,98.43
2017-02-27T07:23:46.503Z,98.33
2017-02-27T07:24:46.496Z,97.96
2017-02-27T07:25:46.470Z,98.05
2017-02-27T07:26:46.470Z,98.01
2017-02-27T07:27:46.449Z,97.82
2017-02-27T07:28:46.430Z,97.91
2017-02-27T07:29:46.429Z,97.82
2017-02-27T07:30:46.417Z,97.82
2017-02-27T07:31:46.403Z,97.82
2017-02-27T07:32:46.367Z,97.82
2017-02-27T07:33:46.356Z,98.48
2017-02-27T07:34:46.336Z,98.24
2017-02-27T07:35:46.338Z,98.33
2017-02-27T07:36:46.321Z,98.71
2017-02-27T07:37:46.308Z,98.81
2017-02-27T07:38:46.293Z,98.43
2017-02-27T07:39:46.267Z,98.52
2017-02-27T07:40:46.278Z,98.62
2017-02-27T07:41:46.236Z,98.62
2017-02-27T07:42:46.216Z,98.62
2017-02-27T07:43:46.199Z,98.52
2017-02-27T07:44:46.191Z,98.81
2017-02-27T07:45:46.191Z,98.43
2017-02-27T07:46:46.166Z,97.77
2017-02-27T07:47:46.157Z,97.72
2017-02-27T07:48:46.140Z,97.39
2017-02-27T07:49:46.128Z,97.3
2017-02-27T07:50:46.104Z,97.25
2017-02-27T07:51:46.081Z,97.35
2017-02-27T07:52:46.067Z,97.06
2017-02-27T07:53:46.059Z,97.35
2017-02-27T07:54:46.046Z,97.06
2017-02-27T07:55:46.045Z,97.25
2017-02-27T07:56:46.015Z,97.44
2017-02-27T07:57:45.988Z,96.88
2017-02-27T07:58:45.991Z,97.3
2017-02-27T07:59:45.974Z,97.11
2017-02-27T08:00:45.964Z,96.64
2017-02-27T08:01:45.932Z,96.97
2017-02-27T08:02:45.925Z,96.92
2017-02-27T08:03:45.906Z,96.83
2017-02-27T08:04:45.907Z,97.45
2017-02-27T08:05:45.887Z,97.3
2017-02-27T08:06:45.874Z,97.02
2017-02-27T08:07:45.851Z,97.21
2017-02-27T08:08:45.839Z,97.02
2017-02-27T08:09:45.824Z,97.21
2017-02-27T08:10:45.452Z,96.97
2017-02-27T08:11:45.795Z,96.88
2017-02-27T08:12:45.790Z,96.59
2017-02-27T08:13:45.779Z,96.73
2017-02-27T08:14:45.762Z,96.73
2017-02-27T08:15:45.755Z,96.92
2017-02-27T08:16:45.729Z,96.92
2017-02-27T08:17:45.716Z,96.64
2017-02-27T08:18:45.715Z,97.78
2017-02-27T08:19:45.700Z,96.97
2017-02-27T08:20:45.686Z,96.97
2017-02-27T08:21:45.683Z,97.02
2017-02-27T08:22:45.652Z,97.12
2017-02-27T08:23:45.640Z,96.73
2017-02-27T08:24:45.626Z,96.83
2017-02-27T08:25:45.612Z,97.07
2017-02-27T08:26:45.612Z,96.88
2017-02-27T08:27:45.611Z,96.5
2017-02-27T08:28:45.574Z,96.55
2017-02-27T08:29:45.572Z,96.22
2017-02-27T08:30:45.558Z,96.12
2017-02-27T08:31:45.537Z,96.12
2017-02-27T08:32:45.546Z,97.12
2017-02-27T08:33:45.522Z,96.64
2017-02-27T08:34:45.504Z,97.12
2017-02-27T08:35:45.518Z,96.88
2017-02-27T08:36:45.496Z,97.07
2017-02-27T08:37:45.472Z,96.97
2017-02-27T08:38:45.476Z,97.74
2017-02-27T08:39:45.459Z,97.74
2017-02-27T08:40:45.440Z,97.26
2017-02-27T08:41:45.425Z,97.36
2017-02-27T08:42:45.420Z,97.59
2017-02-27T08:43:45.416Z,97.78
2017-02-27T08:44:45.408Z,97.26
2017-02-27T08:45:45.381Z,97.74
2017-02-27T08:46:45.367Z,97.73
2017-02-27T08:47:45.358Z,97.4
2017-02-27T08:48:45.354Z,97.45
2017-02-27T08:49:45.346Z,96.92
2017-02-27T08:50:45.329Z,96.93
2017-02-27T08:51:45.334Z,97.5
2017-02-27T08:52:44.918Z,97.92
2017-02-27T08:53:45.297Z,97.17
2017-02-27T08:54:45.290Z,97.07
2017-02-27T08:55:45.278Z,97.83
2017-02-27T08:56:45.251Z,97.45
2017-02-27T08:57:45.244Z,97.69
2017-02-27T08:58:45.235Z,97.21
2017-02-27T08:59:45.233Z,98.16
2017-02-27T09:00:45.209Z,97.73
2017-02-27T09:01:45.219Z,98.3
2017-02-27T09:02:45.200Z,98.06
2017-02-27T09:03:45.170Z,97.96
2017-02-27T09:04:45.158Z,97.96
2017-02-27T09:05:45.159Z,97.54
2017-02-27T09:06:45.127Z,97.64
2017-02-27T09:07:45.137Z,96.92
2017-02-27T09:08:45.120Z,97.02
2017-02-27T09:09:45.103Z,97.26
2017-02-27T09:10:45.077Z,97.07
2017-02-27T09:11:45.068Z,97.5
2017-02-27T09:12:45.057Z,97.02
2017-02-27T09:13:45.056Z,97.45
2017-02-27T09:14:44.653Z,97.3
2017-02-27T09:15:45.014Z,97.45
2017-02-27T09:16:44.620Z,97.59
2017-02-27T09:17:45.012Z,97.02
2017-02-27T09:18:44.992Z,97.07
2017-02-27T09:19:44.585Z,97.26
2017-02-27T09:20:44.966Z,96.88
2017-02-27T09:21:44.578Z,96.88
2017-02-27T09:22:44.563Z,97.21
2017-02-27T09:23:44.549Z,97.26
2017-02-27T09:24:44.516Z,97.26
2017-02-27T09:25:44.886Z,97.21
2017-02-27T09:26:44.883Z,97.5
2017-02-27T09:27:44.878Z,97.64
2017-02-27T09:28:44.858Z,97.5
2017-02-27T09:29:44.834Z,97.12
2017-02-27T09:30:44.839Z,97.02
2017-02-27T09:31:44.812Z,97.07
2017-02-27T09:32:44.800Z,97.07
2017-02-27T09:33:44.791Z,97.26
2017-02-27T09:34:44.801Z,96.97
2017-02-27T09:35:44.773Z,97.07
2017-02-27T09:36:44.762Z,97.02
2017-02-27T09:37:44.758Z,97.02
2017-02-27T09:38:44.732Z,96.92
2017-02-27T09:39:44.710Z,97.31
2017-02-27T09:40:44.696Z,96.92
2017-02-27T09:41:44.679Z,97.02
2017-02-27T09:42:44.667Z,97.17
2017-02-27T09:43:44.673Z,96.92
2017-02-27T09:44:44.641Z,96.83
2017-02-27T09:45:44.628Z,97.07
2017-02-27T09:46:44.618Z,96.92
2017-02-27T09:47:44.616Z,96.73
2017-02-27T09:48:44.591Z,97.02
2017-02-27T09:49:44.590Z,96.73
2017-02-27T09:50:44.593Z,96.64
2017-02-27T09:51:44.552Z,96.59
2017-02-27T09:52:44.549Z,96.92
2017-02-27T09:53:44.525Z,96.83
2017-02-27T09:54:44.507Z,96.64
2017-02-27T09:55:44.498Z,97.11
2017-02-27T09:56:44.496Z,97.11
2017-02-27T09:57:44.477Z,96.64
2017-02-27T09:58:44.453Z,96.64
2017-02-27T09:59:44.453Z,97.2
2017-02-27T10:00:44.456Z,97.2
2017-02-27T10:01:44.423Z,96.59
2017-02-27T10:02:44.396Z,96.88
2017-02-27T10:03:44.384Z,96.92
2017-02-27T10:04:44.382Z,96.69
2017-02-27T10:05:44.363Z,96.69
2017-02-27T10:06:44.344Z,96.5
2017-02-27T10:07:44.321Z,96.4
2017-02-27T10:08:44.313Z,96.59
2017-02-27T10:09:44.305Z,96.59
2017-02-27T10:10:44.281Z,96.78
2017-02-27T10:11:44.258Z,96.5
2017-02-27T10:12:44.257Z,96.78
2017-02-27T10:13:44.252Z,96.78
2017-02-27T10:14:44.214Z,96.78
2017-02-27T10:15:43.817Z,96.78
2017-02-27T10:16:44.181Z,96.78
2017-02-27T10:17:44.180Z,97.06
2017-02-27T10:18:44.164Z,96.26
2017-02-27T10:19:43.770Z,96.35
2017-02-27T10:20:44.144Z,96.31
2017-02-27T10:21:44.107Z,96.35
2017-02-27T10:22:44.106Z,96.4
2017-02-27T10:23:44.082Z,96.35
2017-02-27T10:24:44.060Z,96.26
2017-02-27T10:25:44.056Z,96.26
2017-02-27T10:26:44.045Z,96.88
2017-02-27T10:27:44.035Z,96.26
2017-02-27T10:28:43.616Z,97.02
2017-02-27T10:29:44.001Z,96.83
2017-02-27T10:30:43.987Z,96.88
2017-02-27T10:31:43.966Z,96.88
2017-02-27T10:32:43.952Z,96.59
2017-02-27T10:33:43.927Z,96.83
2017-02-27T10:34:43.923Z,96.92
2017-02-27T10:35:43.895Z,96.83
2017-02-27T10:36:43.890Z,96.59
2017-02-27T10:37:43.863Z,96.73
2017-02-27T10:38:43.846Z,96.59
2017-02-27T10:39:43.849Z,96.78
2017-02-27T10:40:43.838Z,96.92
2017-02-27T10:41:43.824Z,97.11
2017-02-27T10:42:43.786Z,96.31
2017-02-27T10:43:43.780Z,96.31
2017-02-27T10:44:43.767Z,96.4
2017-02-27T10:45:43.748Z,96.31
2017-02-27T10:46:43.725Z,96.83
2017-02-27T10:47:43.731Z,96.83
2017-02-27T10:48:43.697Z,96.97
2017-02-27T10:49:43.686Z,96.78
2017-02-27T10:50:43.675Z,96.07
2017-02-27T10:51:43.664Z,96.4
2017-02-27T10:52:43.632Z,96.31
2017-02-27T10:53:43.621Z,96.31
2017-02-27T10:54:43.602Z,96.12
2017-02-27T10:55:43.590Z,96.16
2017-02-27T10:56:43.594Z,96.4
2017-02-27T10:57:43.561Z,96.78
2017-02-27T10:58:43.558Z,96.78
2017-02-27T10:59:43.532Z,96.78
2017-02-27T11:00:43.534Z,96.07
2017-02-27T11:01:43.526Z,96.64
2017-02-27T11:02:43.486Z,96.54
2017-02-27T11:03:43.471Z,96.4
2017-02-27T11:04:43.462Z,96.12
2017-02-27T11:05:43.441Z,96.21
2017-02-27T11:06:43.422Z,96.21
2017-02-27T11:07:43.425Z,96.21
2017-02-27T11:08:43.405Z,96.4
2017-02-27T11:09:43.387Z,96.31
2017-02-27T11:10:43.365Z,96.02
2017-02-27T11:11:43.343Z,95.69
2017-02-27T11:12:43.339Z,95.97
2017-02-27T11:13:43.327Z,95.45
2017-02-27T11:14:43.298Z,95.64
2017-02-27T11:15:43.292Z,95.88
2017-02-27T11:16:43.278Z,95.45
2017-02-27T11:17:43.263Z,95.74
2017-02-27T11:18:43.251Z,95.83
2017-02-27T11:19:43.245Z,95.93
2017-02-27T11:20:43.226Z,95.88
2017-02-27T11:21:43.206Z,95.97
2017-02-27T11:22:43.176Z,95.74
2017-02-27T11:23:43.195Z,95.93
2017-02-27T11:24:43.157Z,95.74
2017-02-27T11:25:43.137Z,95.74
2017-02-27T11:26:43.120Z,96.07
2017-02-27T11:27:43.108Z,95.69
2017-02-27T11:28:43.079Z,95.88
2017-02-27T11:29:43.076Z,95.83
2017-02-27T11:30:43.058Z,95.83
2017-02-27T11:31:43.050Z,95.83
2017-02-27T11:32:43.029Z,96.02
2017-02-27T11:33:43.008Z,96.07
2017-02-27T11:34:42.985Z,95.97
2017-02-27T11:35:42.985Z,95.26
2017-02-27T11:36:42.970Z,95.45
2017-02-27T11:37:42.951Z,95.4
2017-02-27T11:38:42.936Z,95.31
2017-02-27T11:39:42.924Z,95.59
2017-02-27T11:40:42.906Z,95.59
2017-02-27T11:41:42.878Z,95.36
2017-02-27T11:42:42.868Z,95.45
2017-02-27T11:43:42.845Z,95.07
2017-02-27T11:44:42.464Z,95.45
2017-02-27T11:45:42.851Z,94.7
2017-02-27T11:46:42.801Z,94.74
2017-02-27T11:47:42.786Z,94.7
2017-02-27T11:48:42.780Z,94.93
2017-02-27T11:49:42.377Z,94.84
2017-02-27T11:50:42.759Z,94.93
2017-02-27T11:51:42.725Z,94.84
2017-02-27T11:52:42.717Z,95.12
2017-02-27T11:53:42.697Z,95.45
2017-02-27T11:54:42.713Z,95.59
2017-02-27T11:55:42.688Z,95.21
2017-02-27T11:56:42.654Z,95.03
2017-02-27T11:57:42.633Z,95.03
2017-02-27T11:58:42.615Z,94.93
2017-02-27T11:59:42.608Z,95.36
2017-02-27T12:00:42.584Z,95.59
2017-02-27T12:01:42.574Z,95.03
2017-02-27T12:02:42.557Z,95.12
2017-02-27T12:03:42.553Z,95.12
2017-02-27T12:04:42.523Z,95.21
2017-02-27T12:05:42.532Z,95.12
2017-02-27T12:06:42.519Z,95.03
2017-02-27T12:07:42.499Z,94.74
2017-02-27T12:08:42.467Z,94.98
2017-02-27T12:09:42.463Z,94.98
2017-02-27T12:10:42.447Z,94.89
2017-02-27T12:11:42.428Z,94.79
2017-02-27T12:12:42.418Z,94.79
2017-02-27T12:13:42.392Z,94.98
2017-02-27T12:14:42.379Z,94.74
2017-02-27T12:15:41.984Z,94.6
2017-02-27T12:16:42.346Z,94.65
2017-02-27T12:17:42.337Z,94.74
2017-02-27T12:18:42.333Z,94.79
2017-02-27T12:19:42.313Z,94.65
2017-02-27T12:20:42.311Z,94.65
2017-02-27T12:21:42.269Z,94.74
2017-02-27T12:22:42.471Z,94.74
2017-02-27T12:23:42.441Z,94.7
2017-02-27T12:24:42.223Z,94.6
2017-02-27T12:25:42.215Z,94.79
2017-02-27T12:26:42.198Z,94.79
2017-02-27T12:27:41.802Z,94.7
2017-02-27T12:28:41.788Z,94.65
2017-02-27T12:29:42.162Z,94.65
2017-02-27T12:30:42.135Z,94.98
2017-02-27T12:31:42.130Z,94.84
2017-02-27T12:32:42.118Z,95.12
2017-02-27T12:33:42.118Z,94.65
2017-02-27T12:34:42.088Z,94.79
2017-02-27T12:35:42.064Z,94.89
2017-02-27T12:36:42.049Z,94.93
2017-02-27T12:37:42.041Z,94.56
2017-02-27T12:38:42.024Z,95.12
2017-02-27T12:39:42.018Z,95.12
2017-02-27T12:40:42.000Z,94.93
2017-02-27T12:41:41.972Z,94.93
2017-02-27T12:42:41.971Z,95.26
2017-02-27T12:43:41.944Z,94.7
2017-02-27T12:44:41.941Z,94.27
2017-02-27T12:45:41.933Z,94.42
2017-02-27T12:46:41.903Z,94.56
2017-02-27T12:47:41.888Z,95.12
2017-02-27T12:48:41.873Z,94.89
2017-02-27T12:49:41.850Z,94.7
2017-02-27T12:50:41.836Z,94.46
2017-02-27T12:51:41.835Z,94.27
2017-02-27T12:52:42.049Z,94.32
2017-02-27T12:53:41.792Z,94.37
2017-02-27T12:54:41.777Z,94.6
2017-02-27T12:55:41.775Z,94.56
2017-02-27T12:56:41.756Z,94.32
2017-02-27T12:57:41.752Z,93.75
2017-02-27T12:58:41.725Z,94.27
2017-02-27T12:59:41.709Z,94.27
2017-02-27T13:00:41.697Z,94.42
2017-02-27T13:01:41.685Z,94.51
2017-02-27T13:02:41.292Z,94.56
2017-02-27T13:03:41.652Z,94.7
2017-02-27T13:04:41.856Z,94.27
2017-02-27T13:05:41.636Z,94.42
2017-02-27T13:06:41.638Z,94.23
2017-02-27T13:07:41.618Z,94.6
2017-02-27T13:08:41.588Z,94.51
2017-02-27T13:09:41.581Z,94.65
2017-02-27T13:10:41.562Z,94.51
2017-02-27T13:11:41.548Z,94.27
2017-02-27T13:12:41.549Z,94.13